Time;durP1;ratioP1;P1;durP2;ratioP2;P2;SDS_P1;SDS_P2;PMS_P1;PMS_P2;Temp;Humidity;BMP_temperature;BMP_pressure;BME280_temperature;BME280_humidity;BME280_pressure;Samples;Min_cycle;Max_cycle;Signal;HPM_P1;HPM_P2
2021/12/17 00:00:05;;;;;;;14.23;11.38;;;;;;;;;;4992503;28;20288;-76
2021/12/17 00:03:09;;;;;;;14.50;11.70;;;;;;;;;;4992119;28;20070;-76
2021/12/17 00:05:42;;;;;;;15.50;11.32;;;;;;;;;;4992220;28;20094;-75
2021/12/17 00:08:09;;;;;;;16.90;11.70;;;;;;;;;;4992403;28;20050;-76
2021/12/17 00:10:35;;;;;;;16.83;12.48;;;;;;;;;;4992401;28;20050;-76
2021/12/17 00:13:03;;;;;;;17.88;12.43;;;;;;;;;;4992110;28;20388;-76
2021/12/17 00:15:29;;;;;;;15.15;12.15;;;;;;;;;;4992576;28;20104;-76
2021/12/17 00:18:02;;;;;;;17.70;12.70;;;;;;;;;;4992281;28;20097;-76
2021/12/17 00:48:24;;;;;;;15.32;11.45;;;;;;;;;;4996091;28;20054;-76
2021/12/17 00:53:36;;;;;;;14.98;12.32;;;;;;;;;;4995774;28;20097;-76
2021/12/17 00:56:03;;;;;;;16.95;12.73;;;;;;;;;;4995563;28;20046;-76
2021/12/17 00:58:29;;;;;;;16.02;12.10;;;;;;;;;;4995627;28;20462;-76
2021/12/17 01:00:56;;;;;;;13.80;11.85;;;;;;;;;;4995570;28;20146;-76
2021/12/17 01:03:22;;;;;;;16.02;12.02;;;;;;;;;;4995517;28;20504;-76
2021/12/17 01:05:49;;;;;;;15.50;11.73;;;;;;;;;;4995344;28;20058;-77
2021/12/17 01:08:16;;;;;;;19.08;13.63;;;;;;;;;;4995290;28;20565;-76
2021/12/17 01:10:46;;;;;;;16.98;12.10;;;;;;;;;;4995449;28;20054;-77
2021/12/17 01:13:12;;;;;;;17.52;13.02;;;;;;;;;;4995122;28;20050;-76
2021/12/17 01:15:40;;;;;;;18.20;12.70;;;;;;;;;;4995470;28;20099;-76
2021/12/17 01:18:11;;;;;;;15.43;12.48;;;;;;;;;;4995429;28;20445;-77
2021/12/17 01:36:31;;;;;;;15.25;11.30;;;;;;;;;;4995227;28;20109;-76
2021/12/17 01:43:55;;;;;;;17.20;12.77;;;;;;;;;;4994745;28;20568;-76
2021/12/17 01:46:24;;;;;;;18.20;13.05;;;;;;;;;;4994714;28;20043;-76
2021/12/17 01:49:23;;;;;;;16.00;11.90;;;;;;;;;;4993918;28;20058;-76
2021/12/17 01:59:53;;;;;;;16.85;12.40;;;;;;;;;;4994710;28;20046;-76
2021/12/17 02:02:19;;;;;;;14.63;11.25;;;;;;;;;;4994381;28;20050;-76
2021/12/17 02:04:46;;;;;;;14.52;11.38;;;;;;;;;;4994551;28;20054;-76
2021/12/17 02:07:12;;;;;;;15.88;12.13;;;;;;;;;;4994203;28;20470;-76
2021/12/17 02:21:05;;;;;;;14.35;11.80;;;;;;;;;;4980853;28;20401;-76
2021/12/17 02:29:04;;;;;;;14.63;12.50;;;;;;;;;;4994063;28;20090;-76
2021/12/17 02:31:33;;;;;;;15.43;13.07;;;;;;;;;;4992639;28;20050;-77
2021/12/17 02:34:07;;;;;;;15.40;13.18;;;;;;;;;;4993930;28;20105;-77
2021/12/17 02:36:35;;;;;;;17.42;12.63;;;;;;;;;;4993843;28;20096;-77
2021/12/17 02:47:18;;;;;;;14.75;12.75;;;;;;;;;;4993784;28;20112;-77
2021/12/17 02:49:45;;;;;;;14.70;11.90;;;;;;;;;;4980103;28;20128;-77
2021/12/17 02:52:12;;;;;;;15.40;12.43;;;;;;;;;;4992117;28;20461;-77
2021/12/17 02:54:39;;;;;;;15.63;12.63;;;;;;;;;;4993716;28;20047;-77
2021/12/17 02:57:07;;;;;;;14.68;12.30;;;;;;;;;;5008465;28;20046;-77
2021/12/17 02:59:35;;;;;;;14.05;11.43;;;;;;;;;;4993004;28;20101;-77
2021/12/17 03:02:02;;;;;;;13.05;11.35;;;;;;;;;;4992400;28;20062;-77
2021/12/17 03:04:29;;;;;;;11.03;9.93;;;;;;;;;;4993616;28;20058;-77
2021/12/17 03:06:56;;;;;;;;;;;;;;;;;;4993540;28;20077;-77
2021/12/17 03:09:36;;;;;;;13.02;10.27;;;;;;;;;;4993564;28;20262;-77
2021/12/17 03:12:08;;;;;;;11.13;9.73;;;;;;;;;;4992015;28;20073;-77
2021/12/17 03:14:45;;;;;;;14.05;11.10;;;;;;;;;;4993052;28;20065;-77
2021/12/17 03:17:19;;;;;;;13.18;11.38;;;;;;;;;;4992907;28;20049;-77
2021/12/17 03:25:20;;;;;;;12.35;10.32;;;;;;;;;;4975035;28;20046;-77
2021/12/17 03:27:47;;;;;;;11.85;10.57;;;;;;;;;;4992834;28;20097;-77
2021/12/17 03:30:13;;;;;;;13.27;11.38;;;;;;;;;;4992911;28;20442;-77
2021/12/17 03:32:40;;;;;;;11.43;9.60;;;;;;;;;;4992847;28;20105;-77
2021/12/17 03:35:07;;;;;;;11.52;10.20;;;;;;;;;;4992608;28;20430;-77
2021/12/17 03:37:33;;;;;;;13.20;11.13;;;;;;;;;;4992815;28;20112;-77
2021/12/17 03:40:00;;;;;;;13.25;11.10;;;;;;;;;;4992928;28;20050;-77
2021/12/17 03:42:26;;;;;;;14.15;11.35;;;;;;;;;;4992803;28;20441;-77
2021/12/17 03:44:53;;;;;;;13.63;10.88;;;;;;;;;;4992789;28;20089;-77
2021/12/17 03:47:19;;;;;;;11.75;9.80;;;;;;;;;;4992414;28;20046;-77
2021/12/17 03:49:46;;;;;;;13.07;10.13;;;;;;;;;;4992412;28;20113;-77
2021/12/17 03:52:16;;;;;;;12.32;10.50;;;;;;;;;;4993435;28;20050;-77
2021/12/17 03:54:42;;;;;;;13.55;11.07;;;;;;;;;;4992370;28;20109;-77
2021/12/17 03:57:12;;;;;;;14.90;11.30;;;;;;;;;;4992554;28;20116;-76
2021/12/17 03:59:38;;;;;;;13.77;11.35;;;;;;;;;;4992599;28;20050;-76
2021/12/17 04:02:05;;;;;;;16.00;10.93;;;;;;;;;;4990822;28;20285;-76
2021/12/17 04:04:31;;;;;;;12.15;10.07;;;;;;;;;;5007395;28;20565;-76
2021/12/17 04:06:58;;;;;;;12.52;10.93;;;;;;;;;;4992608;28;20053;-76
2021/12/17 04:09:29;;;;;;;13.57;10.60;;;;;;;;;;4992531;28;20467;-76
2021/12/17 04:11:56;;;;;;;13.38;11.15;;;;;;;;;;4995192;28;20137;-76
2021/12/17 04:14:32;;;;;;;14.27;11.10;;;;;;;;;;4998698;28;20100;-76
2021/12/17 04:17:05;;;;;;;16.13;11.25;;;;;;;;;;4999117;28;20061;-77
2021/12/17 04:19:32;;;;;;;12.82;11.02;;;;;;;;;;4998795;28;20057;-77
2021/12/17 04:21:58;;;;;;;15.13;11.23;;;;;;;;;;4998901;28;20040;-77
2021/12/17 04:24:25;;;;;;;14.80;10.88;;;;;;;;;;4998601;28;20100;-77
2021/12/17 04:26:51;;;;;;;13.80;10.98;;;;;;;;;;4998856;28;20050;-77
2021/12/17 04:29:19;;;;;;;13.52;10.93;;;;;;;;;;4998783;28;20093;-77
2021/12/17 04:31:52;;;;;;;14.23;11.23;;;;;;;;;;4998815;28;20125;-77
2021/12/17 04:34:19;;;;;;;14.23;11.07;;;;;;;;;;4998557;28;20109;-77
2021/12/17 04:36:48;;;;;;;12.93;10.60;;;;;;;;;;4998643;28;20109;-77
2021/12/17 04:39:19;;;;;;;14.68;11.35;;;;;;;;;;4998902;28;20532;-77
2021/12/17 04:41:54;;;;;;;16.38;11.68;;;;;;;;;;4998379;28;20564;-77
2021/12/17 04:44:25;;;;;;;16.50;12.23;;;;;;;;;;4998859;28;20061;-77
2021/12/17 04:57:13;;;;;;;15.75;11.52;;;;;;;;;;4998345;28;20054;-77
2021/12/17 04:57:55;;;;;;;17.25;12.15;;;;;;;;;;4998367;28;20096;-77
2021/12/17 05:00:25;;;;;;;16.58;12.45;;;;;;;;;;4988940;28;20054;-77
2021/12/17 05:02:54;;;;;;;16.98;12.23;;;;;;;;;;4994759;28;20108;-77
2021/12/17 05:05:22;;;;;;;16.58;12.57;;;;;;;;;;4998394;28;20557;-77
2021/12/17 05:07:53;;;;;;;17.50;12.20;;;;;;;;;;4998737;28;20050;-77
2021/12/17 05:18:36;;;;;;;16.45;11.80;;;;;;;;;;4998389;28;20046;-77
2021/12/17 05:21:05;;;;;;;14.95;11.75;;;;;;;;;;4998540;28;20442;-77
2021/12/17 05:23:35;;;;;;;16.95;12.02;;;;;;;;;;4995981;28;20406;-77
2021/12/17 05:26:03;;;;;;;14.68;11.52;;;;;;;;;;4995605;28;20043;-78
2021/12/17 05:28:29;;;;;;;13.95;10.75;;;;;;;;;;4993838;28;20487;-77
2021/12/17 05:30:56;;;;;;;14.73;11.25;;;;;;;;;;4995103;28;20058;-77
2021/12/17 05:33:24;;;;;;;16.17;11.70;;;;;;;;;;4994943;28;20054;-77
2021/12/17 05:35:50;;;;;;;14.40;11.73;;;;;;;;;;4994860;28;20129;-77
2021/12/17 05:38:18;;;;;;;14.25;10.32;;;;;;;;;;5010157;28;20292;-77
2021/12/17 05:40:45;;;;;;;16.35;12.32;;;;;;;;;;4994922;28;20051;-77
2021/12/17 05:43:13;;;;;;;17.85;12.50;;;;;;;;;;4993667;28;20553;-77
2021/12/17 05:48:17;;;;;;;16.33;12.02;;;;;;;;;;4994919;28;20108;-77
2021/12/17 05:50:45;;;;;;;17.20;13.38;;;;;;;;;;4994743;28;20515;-77
2021/12/17 05:53:11;;;;;;;15.27;11.98;;;;;;;;;;4994590;28;20498;-77
2021/12/17 05:55:38;;;;;;;16.48;12.35;;;;;;;;;;4994409;28;20479;-77
2021/12/17 05:58:05;;;;;;;17.38;12.68;;;;;;;;;;4994845;28;20050;-77
2021/12/17 06:00:32;;;;;;;16.50;12.97;;;;;;;;;;4994762;28;20054;-77
2021/12/17 06:02:59;;;;;;;17.23;13.77;;;;;;;;;;4994125;28;20566;-77
2021/12/17 06:05:27;;;;;;;17.25;12.95;;;;;;;;;;4994358;28;20042;-77
2021/12/17 06:07:53;;;;;;;17.20;12.05;;;;;;;;;;4994582;28;20128;-77
2021/12/17 06:10:20;;;;;;;16.05;12.68;;;;;;;;;;4994523;28;20128;-77
2021/12/17 06:12:47;;;;;;;17.63;12.90;;;;;;;;;;4994346;28;20054;-77
2021/12/17 06:15:14;;;;;;;18.60;12.77;;;;;;;;;;4994415;28;20438;-77
2021/12/17 06:17:41;;;;;;;15.73;12.30;;;;;;;;;;4994036;28;20081;-77
2021/12/17 06:20:08;;;;;;;18.08;12.57;;;;;;;;;;4993985;28;20042;-77
2021/12/17 06:22:35;;;;;;;16.42;12.23;;;;;;;;;;4994348;28;20089;-77
2021/12/17 06:25:06;;;;;;;15.60;11.63;;;;;;;;;;4994263;28;20074;-77
2021/12/17 06:27:33;;;;;;;11.18;7.93;;;;;;;;;;4994348;28;20057;-77
2021/12/17 06:30:01;;;;;;;12.60;9.93;;;;;;;;;;4992749;28;20121;-77
2021/12/17 06:32:28;;;;;;;15.20;11.50;;;;;;;;;;4992922;28;20050;-77
2021/12/17 06:34:54;;;;;;;16.42;11.85;;;;;;;;;;4993541;28;20050;-77
2021/12/17 06:37:21;;;;;;;17.80;11.80;;;;;;;;;;4994023;28;20116;-77
2021/12/17 06:39:48;;;;;;;15.35;11.75;;;;;;;;;;4994126;28;20100;-76
2021/12/17 06:42:15;;;;;;;15.50;11.25;;;;;;;;;;4993564;28;20495;-76
2021/12/17 06:44:43;;;;;;;14.85;12.00;;;;;;;;;;4993579;28;20062;-76
2021/12/17 07:10:57;;;;;;;14.80;10.90;;;;;;;;;;4973424;28;20097;-76
2021/12/17 07:21:42;;;;;;;13.70;11.20;;;;;;;;;;4973290;28;20043;-77
2021/12/17 07:24:36;;;;;;;14.35;10.20;;;;;;;;;;4990715;28;20042;-78
2021/12/17 07:35:47;;;;;;;10.68;8.43;;;;;;;;;;4992603;28;20494;-77
2021/12/17 07:40:10;;;;;;;16.60;10.43;;;;;;;;;;4992921;28;20146;-79
2021/12/17 07:42:37;;;;;;;12.15;9.85;;;;;;;;;;4992833;28;20329;-79
2021/12/17 07:45:04;;;;;;;13.90;10.23;;;;;;;;;;4988785;28;20050;-79
2021/12/17 07:47:30;;;;;;;11.63;8.88;;;;;;;;;;4984265;28;20117;-79
2021/12/17 07:49:57;;;;;;;13.48;9.27;;;;;;;;;;4973102;28;20058;-79
2021/12/17 07:52:23;;;;;;;13.77;9.88;;;;;;;;;;4981722;28;20046;-77
2021/12/17 07:54:50;;;;;;;13.95;8.85;;;;;;;;;;4984158;28;20051;-78
2021/12/17 07:57:16;;;;;;;12.48;9.05;;;;;;;;;;4986990;28;20050;-77
2021/12/17 07:59:43;;;;;;;11.55;8.27;;;;;;;;;;4984005;28;20050;-77
2021/12/17 08:02:09;;;;;;;9.48;8.02;;;;;;;;;;4992404;28;20128;-77
2021/12/17 08:04:36;;;;;;;10.90;8.05;;;;;;;;;;4981404;28;20195;-79
2021/12/17 08:07:02;;;;;;;16.35;9.38;;;;;;;;;;4989190;28;20050;-77
2021/12/17 08:09:29;;;;;;;11.95;8.35;;;;;;;;;;4992342;28;20050;-77
2021/12/17 08:11:57;;;;;;;12.65;8.40;;;;;;;;;;4992287;28;20062;-79
2021/12/17 08:14:25;;;;;;;11.10;7.70;;;;;;;;;;4992114;28;20569;-76
2021/12/17 08:17:06;;;;;;;11.25;8.43;;;;;;;;;;4992393;28;20065;-81
2021/12/17 08:25:12;;;;;;;14.30;9.57;;;;;;;;;;4989329;28;20338;-77
2021/12/17 08:32:45;;;;;;;11.98;8.27;;;;;;;;;;4992356;28;20090;-78
2021/12/17 08:35:12;;;;;;;10.97;8.70;;;;;;;;;;4991357;28;20062;-76
2021/12/17 08:37:39;;;;;;;13.38;9.27;;;;;;;;;;4976485;28;20101;-75
2021/12/17 08:40:07;;;;;;;12.07;9.43;;;;;;;;;;4989130;28;20053;-75
2021/12/17 08:42:33;;;;;;;14.88;10.05;;;;;;;;;;4992156;28;20472;-76
2021/12/17 08:45:00;;;;;;;19.08;11.15;;;;;;;;;;4992775;28;20054;-76
2021/12/17 08:47:26;;;;;;;12.98;9.82;;;;;;;;;;5006987;28;20482;-76
2021/12/17 08:49:54;;;;;;;10.57;8.32;;;;;;;;;;4991915;28;20129;-76
2021/12/17 08:52:20;;;;;;;14.15;9.75;;;;;;;;;;4987059;28;20557;-75
2021/12/17 08:54:46;;;;;;;13.40;9.82;;;;;;;;;;4972318;28;20051;-75
2021/12/17 08:57:13;;;;;;;12.85;9.35;;;;;;;;;;4971643;28;20085;-75
2021/12/17 08:59:39;;;;;;;10.25;8.38;;;;;;;;;;4974070;28;20101;-76
2021/12/17 09:02:06;;;;;;;16.20;9.43;;;;;;;;;;4974817;28;20384;-75
2021/12/17 09:04:33;;;;;;;12.27;9.43;;;;;;;;;;4979231;28;20042;-75
2021/12/17 09:06:59;;;;;;;12.02;9.48;;;;;;;;;;4975924;28;20042;-73
2021/12/17 09:09:27;;;;;;;14.05;9.43;;;;;;;;;;4975740;28;20062;-74
2021/12/17 09:11:53;;;;;;;;;;;;;;;;;;4990964;28;20051;-75
2021/12/17 09:14:20;;;;;;;14.13;9.40;;;;;;;;;;4991864;28;19925;-74
2021/12/17 09:16:48;;;;;;;11.50;9.87;;;;;;;;;;4975168;28;20039;-74
2021/12/17 09:19:14;;;;;;;11.75;9.25;;;;;;;;;;4975131;28;20277;-74
2021/12/17 09:21:41;;;;;;;15.35;9.40;;;;;;;;;;4978909;28;20187;-75
2021/12/17 09:24:08;;;;;;;12.15;9.95;;;;;;;;;;4995189;28;20089;-74
2021/12/17 09:26:35;;;;;;;12.50;9.75;;;;;;;;;;4988158;28;20050;-75
2021/12/17 09:29:02;;;;;;;15.27;10.73;;;;;;;;;;4994780;28;20050;-74
2021/12/17 09:31:28;;;;;;;12.63;10.35;;;;;;;;;;4995015;28;20066;-74
2021/12/17 09:33:55;;;;;;;12.82;10.00;;;;;;;;;;4995028;28;20085;-74
2021/12/17 09:36:22;;;;;;;15.10;9.63;;;;;;;;;;4994837;28;20556;-73
2021/12/17 09:38:52;;;;;;;11.98;9.48;;;;;;;;;;4994846;28;20565;-72
2021/12/17 09:41:20;;;;;;;11.85;9.43;;;;;;;;;;4995150;28;20042;-75
2021/12/17 09:43:47;;;;;;;12.43;9.95;;;;;;;;;;4994691;28;20568;-74
2021/12/17 09:46:14;;;;;;;11.85;8.55;;;;;;;;;;4993420;28;20458;-75
2021/12/17 09:48:40;;;;;;;9.65;8.48;;;;;;;;;;4994922;28;20054;-75
2021/12/17 09:51:07;;;;;;;10.48;8.27;;;;;;;;;;4994689;28;20461;-74
2021/12/17 09:53:34;;;;;;;10.23;8.13;;;;;;;;;;4993500;28;20096;-75
2021/12/17 09:56:01;;;;;;;10.85;8.50;;;;;;;;;;4994733;28;20116;-74
2021/12/17 09:58:29;;;;;;;11.18;8.13;;;;;;;;;;4995097;28;20050;-74
2021/12/17 10:00:55;;;;;;;10.05;8.30;;;;;;;;;;4994959;28;20128;-75
2021/12/17 10:03:22;;;;;;;9.77;8.60;;;;;;;;;;4994416;28;20057;-74
2021/12/17 10:05:50;;;;;;;11.50;8.85;;;;;;;;;;4994552;28;20050;-74
2021/12/17 10:08:19;;;;;;;10.00;7.90;;;;;;;;;;4994798;28;20172;-74
2021/12/17 10:10:47;;;;;;;9.82;8.48;;;;;;;;;;4993845;28;20050;-75
2021/12/17 10:13:13;;;;;;;;;;;;;;;;;;4994161;28;20494;-74
2021/12/17 10:15:42;;;;;;;10.57;8.40;;;;;;;;;;4993811;28;19929;-75
2021/12/17 10:18:08;;;;;;;9.82;8.80;;;;;;;;;;4975417;28;20051;-75
2021/12/17 10:20:47;;;;;;;9.85;8.40;;;;;;;;;;4994457;28;20073;-75
2021/12/17 10:23:14;;;;;;;10.30;8.02;;;;;;;;;;4994389;28;20445;-75
2021/12/17 10:25:41;;;;;;;11.93;8.15;;;;;;;;;;4994011;28;20050;-74
2021/12/17 10:28:08;;;;;;;9.38;7.50;;;;;;;;;;4994295;28;20473;-75
2021/12/17 10:30:37;;;;;;;9.80;8.20;;;;;;;;;;4993495;28;20096;-74
2021/12/17 10:33:05;;;;;;;12.65;8.38;;;;;;;;;;4994115;28;20050;-74
2021/12/17 10:35:31;;;;;;;;;;;;;;;;;;4994080;28;20082;-74
2021/12/17 10:38:01;;;;;;;12.05;8.57;;;;;;;;;;4993768;28;19925;-74
2021/12/17 10:40:30;;;;;;;10.98;7.53;;;;;;;;;;4993633;28;20050;-74
2021/12/17 10:43:06;;;;;;;13.20;8.95;;;;;;;;;;4994159;28;20053;-74
2021/12/17 10:45:42;;;;;;;11.90;9.10;;;;;;;;;;4993783;28;20458;-75
2021/12/17 10:54:07;;;;;;;10.40;8.30;;;;;;;;;;4971608;28;20054;-75
2021/12/17 10:56:43;;;;;;;8.85;7.50;;;;;;;;;;4971647;28;20454;-75
2021/12/17 10:59:11;;;;;;;9.48;8.05;;;;;;;;;;4972892;28;20054;-75
2021/12/17 11:01:42;;;;;;;9.20;7.32;;;;;;;;;;4993656;28;20058;-75
2021/12/17 11:04:13;;;;;;;12.32;8.25;;;;;;;;;;4993175;28;20105;-75
2021/12/17 11:06:44;;;;;;;8.73;7.82;;;;;;;;;;4993073;28;20050;-75
2021/12/17 11:09:10;;;;;;;9.93;8.02;;;;;;;;;;4993098;28;20077;-75
2021/12/17 11:11:43;;;;;;;11.38;8.50;;;;;;;;;;4993152;28;20054;-75
2021/12/17 11:14:09;;;;;;;8.73;7.43;;;;;;;;;;4993438;28;20058;-75
2021/12/17 11:16:37;;;;;;;10.88;7.43;;;;;;;;;;4993158;28;20490;-75
2021/12/17 11:19:04;;;;;;;8.73;7.53;;;;;;;;;;4993287;28;20117;-75
2021/12/17 11:21:30;;;;;;;12.10;8.15;;;;;;;;;;4992187;28;20108;-75
2021/12/17 11:23:58;;;;;;;8.75;7.07;;;;;;;;;;4992993;28;20054;-75
2021/12/17 11:26:25;;;;;;;9.68;8.05;;;;;;;;;;4993530;28;20054;-75
2021/12/17 11:28:52;;;;;;;9.83;7.67;;;;;;;;;;4993014;28;20105;-75
2021/12/17 11:31:19;;;;;;;;;;;;;;;;;;4993218;28;20101;-75
2021/12/17 11:33:45;;;;;;;11.52;7.43;;;;;;;;;;4992786;28;19968;-75
2021/12/17 11:36:12;;;;;;;8.82;7.28;;;;;;;;;;4992670;28;20474;-75
2021/12/17 11:38:49;;;;;;;9.75;8.00;;;;;;;;;;4992539;28;20046;-75
2021/12/17 11:42:00;;;;;;;7.47;6.68;;;;;;;;;;4991410;28;20105;-75
2021/12/17 11:44:39;;;;;;;8.07;6.95;;;;;;;;;;4979179;28;20047;-75
2021/12/17 11:47:07;;;;;;;8.82;7.10;;;;;;;;;;4986436;28;20047;-75
2021/12/17 11:49:52;;;;;;;9.30;7.05;;;;;;;;;;4972550;28;20070;-76
2021/12/17 11:52:34;;;;;;;9.88;7.25;;;;;;;;;;4972918;28;20113;-75
2021/12/17 11:55:24;;;;;;;9.93;8.23;;;;;;;;;;4972412;28;20047;-75
2021/12/17 11:57:52;;;;;;;10.43;7.55;;;;;;;;;;4974387;28;20094;-75
2021/12/17 12:00:18;;;;;;;;;;;;;;;;;;4993172;28;20042;-74
2021/12/17 12:02:53;;;;;;;7.35;6.53;;;;;;;;;;4991147;28;19922;-75
2021/12/17 12:05:33;;;;;;;9.45;6.22;;;;;;;;;;4992646;28;20046;-74
2021/12/17 12:08:18;;;;;;;9.82;7.28;;;;;;;;;;4989804;28;20468;-75
2021/12/17 12:11:01;;;;;;;11.07;7.85;;;;;;;;;;4972424;28;20639;-74
2021/12/17 12:13:35;;;;;;;9.68;6.75;;;;;;;;;;4978634;28;20121;-74
2021/12/17 12:16:03;;;;;;;9.82;6.78;;;;;;;;;;4979980;28;20089;-74
2021/12/17 12:18:38;;;;;;;7.90;6.53;;;;;;;;;;4972520;28;20055;-74
2021/12/17 12:21:04;;;;;;;6.90;6.25;;;;;;;;;;4984685;28;20043;-74
2021/12/17 12:23:31;;;;;;;9.20;7.15;;;;;;;;;;4984318;28;20054;-74
2021/12/17 12:28:41;;;;;;;8.40;6.93;;;;;;;;;;4992036;28;20073;-75
2021/12/17 12:31:31;;;;;;;8.38;7.35;;;;;;;;;;4992628;28;20054;-75
2021/12/17 12:34:01;;;;;;;8.75;7.03;;;;;;;;;;4995100;28;20395;-74
2021/12/17 12:36:46;;;;;;;8.32;6.53;;;;;;;;;;4996023;28;20442;-74
2021/12/17 12:39:15;;;;;;;8.98;7.40;;;;;;;;;;4995668;28;20116;-73
2021/12/17 12:41:46;;;;;;;8.70;6.82;;;;;;;;;;4995424;28;20560;-74
2021/12/17 12:44:12;;;;;;;8.48;6.30;;;;;;;;;;4995692;28;20042;-75
2021/12/17 12:46:49;;;;;;;9.18;7.40;;;;;;;;;;4995788;28;20403;-74
2021/12/17 12:49:34;;;;;;;8.90;6.63;;;;;;;;;;4995709;28;20050;-74
2021/12/17 12:52:33;;;;;;;6.82;6.07;;;;;;;;;;4996088;28;20050;-74
2021/12/17 12:55:02;;;;;;;7.45;6.63;;;;;;;;;;4975085;28;20062;-75
2021/12/17 12:57:30;;;;;;;9.25;6.93;;;;;;;;;;4993312;28;20050;-74
2021/12/17 13:00:05;;;;;;;8.60;6.72;;;;;;;;;;4995810;28;20038;-71
2021/12/17 13:02:32;;;;;;;8.15;5.60;;;;;;;;;;4995151;28;20058;-73
2021/12/17 13:05:00;;;;;;;7.47;5.90;;;;;;;;;;4991089;28;20042;-74
2021/12/17 13:07:33;;;;;;;8.85;7.15;;;;;;;;;;4975345;28;20467;-74
2021/12/17 13:10:11;;;;;;;7.05;6.32;;;;;;;;;;4974489;28;20058;-74
2021/12/17 13:12:39;;;;;;;9.80;6.75;;;;;;;;;;4975742;28;20062;-73
2021/12/17 13:15:18;;;;;;;9.68;7.22;;;;;;;;;;4975512;28;20051;-73
2021/12/17 13:20:58;;;;;;;13.27;9.13;;;;;;;;;;4981199;28;20490;-73
2021/12/17 13:23:24;;;;;;;16.05;9.00;;;;;;;;;;4975227;28;20454;-73
2021/12/17 13:26:01;;;;;;;9.18;6.47;;;;;;;;;;4977962;28;20047;-73
2021/12/17 13:28:28;;;;;;;8.07;6.28;;;;;;;;;;4988003;28;20454;-73
2021/12/17 13:30:55;;;;;;;7.13;6.43;;;;;;;;;;4975108;28;20101;-73
2021/12/17 13:33:22;;;;;;;6.85;5.65;;;;;;;;;;4975366;28;20039;-71
2021/12/17 13:35:48;;;;;;;9.48;6.85;;;;;;;;;;4973996;28;20120;-71
2021/12/17 13:38:15;;;;;;;9.85;6.45;;;;;;;;;;4975125;28;20050;-73
2021/12/17 13:40:41;;;;;;;7.78;6.35;;;;;;;;;;4977845;28;20118;-72
2021/12/17 13:43:08;;;;;;;8.93;6.32;;;;;;;;;;4974866;28;20042;-72
2021/12/17 13:45:35;;;;;;;8.60;6.75;;;;;;;;;;4973763;28;20078;-72
2021/12/17 13:48:01;;;;;;;8.00;6.83;;;;;;;;;;4974816;28;20046;-72
2021/12/17 13:50:30;;;;;;;10.25;7.10;;;;;;;;;;4974720;28;20051;-72
2021/12/17 13:53:00;;;;;;;9.43;7.57;;;;;;;;;;4974894;28;20054;-72
2021/12/17 13:55:34;;;;;;;11.75;8.38;;;;;;;;;;4974958;28;20050;-72
2021/12/17 13:58:13;;;;;;;7.97;7.18;;;;;;;;;;4974868;28;20452;-73
2021/12/17 14:00:42;;;;;;;8.98;7.80;;;;;;;;;;4975001;28;20046;-73
2021/12/17 14:03:11;;;;;;;10.48;8.07;;;;;;;;;;4985112;28;20087;-73
2021/12/17 14:05:43;;;;;;;9.77;7.82;;;;;;;;;;4994343;28;20414;-74
2021/12/17 14:08:19;;;;;;;7.80;6.85;;;;;;;;;;4994818;28;20461;-73
2021/12/17 14:10:48;;;;;;;10.70;7.50;;;;;;;;;;4994589;28;20058;-74
2021/12/17 14:13:15;;;;;;;10.18;7.30;;;;;;;;;;4994506;28;20105;-74
2021/12/17 14:16:02;;;;;;;11.18;8.55;;;;;;;;;;4994380;28;20050;-75
2021/12/17 14:18:28;;;;;;;10.43;8.52;;;;;;;;;;4994346;28;20038;-72
2021/12/17 14:20:56;;;;;;;10.63;8.57;;;;;;;;;;4990720;28;20046;-71
2021/12/17 14:23:24;;;;;;;10.65;9.45;;;;;;;;;;4974566;28;20043;-72
2021/12/17 14:25:57;;;;;;;10.98;9.48;;;;;;;;;;4987517;28;20457;-72
2021/12/17 14:28:31;;;;;;;13.55;9.65;;;;;;;;;;4994230;28;20042;-72
2021/12/17 14:31:01;;;;;;;12.38;9.70;;;;;;;;;;4993986;28;20108;-72
2021/12/17 14:33:32;;;;;;;12.88;9.60;;;;;;;;;;4975914;28;20051;-72
2021/12/17 14:36:05;;;;;;;13.23;10.23;;;;;;;;;;4973829;28;20051;-72
2021/12/17 14:38:36;;;;;;;14.65;11.20;;;;;;;;;;4974083;28;20051;-72
2021/12/17 14:41:03;;;;;;;14.77;10.93;;;;;;;;;;4988700;28;20480;-73
2021/12/17 14:43:35;;;;;;;13.05;9.88;;;;;;;;;;4974114;28;20102;-72
2021/12/17 15:04:45;;;;;;;12.00;9.30;;;;;;;;;;4980821;28;20093;-74
2021/12/17 15:07:11;;;;;;;10.25;8.57;;;;;;;;;;4981057;28;20057;-72
2021/12/17 15:09:43;;;;;;;12.60;9.32;;;;;;;;;;4990306;28;20050;-72
2021/12/17 15:15:05;;;;;;;11.48;9.00;;;;;;;;;;4993504;28;20050;-72
2021/12/17 15:17:35;;;;;;;12.73;9.35;;;;;;;;;;4993232;28;20050;-72
2021/12/17 15:20:18;;;;;;;12.45;9.13;;;;;;;;;;4993216;28;20043;-73
2021/12/17 15:22:45;;;;;;;13.65;9.57;;;;;;;;;;4993022;28;20109;-72
2021/12/17 15:25:13;;;;;;;12.13;8.57;;;;;;;;;;4993069;28;20442;-71
2021/12/17 15:27:39;;;;;;;9.88;7.85;;;;;;;;;;5007818;28;20104;-71
2021/12/17 15:30:18;;;;;;;9.25;8.27;;;;;;;;;;4992736;28;20100;-71
2021/12/17 15:32:44;;;;;;;9.02;7.78;;;;;;;;;;4993068;28;20117;-73
2021/12/17 15:35:12;;;;;;;9.77;7.53;;;;;;;;;;4992580;28;20513;-74
2021/12/17 15:37:39;;;;;;;9.32;8.32;;;;;;;;;;4992798;28;20050;-74
2021/12/17 15:40:06;;;;;;;8.25;7.40;;;;;;;;;;4993114;28;20522;-74
2021/12/17 15:42:33;;;;;;;10.80;8.07;;;;;;;;;;4992583;28;20495;-74
2021/12/17 15:44:59;;;;;;;10.52;8.70;;;;;;;;;;4992914;28;20057;-64
2021/12/17 15:47:26;;;;;;;11.07;8.93;;;;;;;;;;4992529;28;20054;-74
2021/12/17 15:49:52;;;;;;;11.40;8.43;;;;;;;;;;4992533;28;20137;-72
2021/12/17 15:52:19;;;;;;;11.13;8.38;;;;;;;;;;5007772;28;20490;-69
2021/12/17 15:54:45;;;;;;;12.75;9.88;;;;;;;;;;4992633;28;20054;-70
2021/12/17 15:57:12;;;;;;;12.18;9.18;;;;;;;;;;4992601;28;20121;-72
2021/12/17 15:59:39;;;;;;;12.10;9.10;;;;;;;;;;4992303;28;20042;-72
2021/12/17 16:02:05;;;;;;;13.65;9.88;;;;;;;;;;4992676;28;20054;-70
2021/12/17 16:04:37;;;;;;;13.10;9.15;;;;;;;;;;4991991;28;20108;-73
2021/12/17 16:07:04;;;;;;;13.20;9.65;;;;;;;;;;4992253;28;20124;-71
2021/12/17 16:23:14;;;;;;;14.27;8.88;;;;;;;;;;4992234;28;20457;-72
2021/12/17 16:25:41;;;;;;;13.57;9.93;;;;;;;;;;4992451;28;20455;-71
2021/12/17 16:28:08;;;;;;;13.63;9.60;;;;;;;;;;4992023;28;20054;-71
2021/12/17 16:30:40;;;;;;;15.02;10.10;;;;;;;;;;4992434;28;20061;-72
2021/12/17 16:33:06;;;;;;;15.30;10.85;;;;;;;;;;4992083;28;20494;-73
2021/12/17 16:35:33;;;;;;;13.52;9.57;;;;;;;;;;4992084;28;20120;-71
2021/12/17 16:37:59;;;;;;;14.18;10.65;;;;;;;;;;4992038;28;20046;-71
2021/12/17 16:40:26;;;;;;;13.35;10.68;;;;;;;;;;4992065;28;20055;-70
2021/12/17 16:42:54;;;;;;;14.18;10.38;;;;;;;;;;4992346;28;20046;-71
2021/12/17 16:45:30;;;;;;;14.77;10.68;;;;;;;;;;4992367;28;20133;-73
2021/12/17 16:48:01;;;;;;;22.00;12.68;;;;;;;;;;4992273;28;20054;-73
2021/12/17 16:50:29;;;;;;;18.55;12.15;;;;;;;;;;4991986;28;20092;-72
2021/12/17 16:52:55;;;;;;;15.00;11.53;;;;;;;;;;5006838;28;20449;-70
2021/12/17 16:55:23;;;;;;;18.77;12.05;;;;;;;;;;4991731;28;20822;-71
2021/12/17 16:57:50;;;;;;;17.63;12.30;;;;;;;;;;4991708;28;20043;-75
2021/12/17 17:00:16;;;;;;;18.65;12.93;;;;;;;;;;4991928;28;20043;-74
2021/12/17 17:02:43;;;;;;;19.13;13.13;;;;;;;;;;4985701;28;20055;-73
2021/12/17 17:05:10;;;;;;;20.08;13.75;;;;;;;;;;4985207;28;20501;-74
2021/12/17 17:07:36;;;;;;;17.52;12.73;;;;;;;;;;4991673;28;20173;-74
2021/12/17 17:10:03;;;;;;;16.73;13.23;;;;;;;;;;4992044;28;20058;-74
2021/12/17 17:12:31;;;;;;;19.92;14.23;;;;;;;;;;4991673;28;20145;-73
2021/12/17 17:14:58;;;;;;;22.80;14.55;;;;;;;;;;4992014;28;20055;-73
2021/12/17 17:17:24;;;;;;;24.80;15.70;;;;;;;;;;4991435;28;20050;-72
2021/12/17 17:19:51;;;;;;;21.55;14.50;;;;;;;;;;4991974;28;20104;-71
2021/12/17 17:22:18;;;;;;;21.23;14.52;;;;;;;;;;4994984;28;20046;-72
2021/12/17 17:24:44;;;;;;;23.38;15.25;;;;;;;;;;4995065;28;20046;-72
2021/12/17 17:27:11;;;;;;;21.65;14.23;;;;;;;;;;4994971;28;20058;-72
2021/12/17 17:29:38;;;;;;;24.65;16.10;;;;;;;;;;4976455;28;20439;-73
2021/12/17 17:32:04;;;;;;;22.08;16.25;;;;;;;;;;4975348;28;20051;-73
2021/12/17 17:34:31;;;;;;;23.60;16.33;;;;;;;;;;4975165;28;20338;-73
2021/12/17 17:36:57;;;;;;;22.13;16.02;;;;;;;;;;4992021;28;20453;-73
2021/12/17 17:39:24;;;;;;;24.00;15.73;;;;;;;;;;4993912;28;20105;-74
2021/12/17 17:41:51;;;;;;;22.65;15.43;;;;;;;;;;4995137;28;20109;-74
2021/12/17 17:44:17;;;;;;;22.55;15.93;;;;;;;;;;4995116;28;20457;-73
2021/12/17 17:46:43;;;;;;;22.98;16.40;;;;;;;;;;4987714;28;20499;-72
2021/12/17 17:49:10;;;;;;;20.90;15.30;;;;;;;;;;4975129;28;20038;-74
2021/12/17 17:51:37;;;;;;;23.67;16.95;;;;;;;;;;4989240;28;20597;-72
2021/12/17 17:54:03;;;;;;;22.30;16.40;;;;;;;;;;4974993;28;20050;-75
2021/12/17 17:56:31;;;;;;;21.58;16.70;;;;;;;;;;4989765;28;20046;-74
2021/12/17 17:58:58;;;;;;;25.13;16.50;;;;;;;;;;4994838;28;20106;-74
2021/12/17 18:01:25;;;;;;;26.52;16.98;;;;;;;;;;4994466;28;20049;-74
2021/12/17 18:03:51;;;;;;;26.42;16.58;;;;;;;;;;4994276;28;20454;-74
2021/12/17 18:06:19;;;;;;;23.90;16.85;;;;;;;;;;4994690;28;20141;-73
2021/12/17 18:08:45;;;;;;;23.30;15.80;;;;;;;;;;4994328;28;20050;-75